sensor_id;sensor_type;location;lat;lon;timestamp;pressure;altitude;pressure_sealevel;temperature;humidity
57600;BME280;43426;43.594;24.334;2023-05-23T00:00:40;100935.25;;;15.41;100.00
57600;BME280;43426;43.594;24.334;2023-05-23T00:03:05;100926.59;;;15.31;100.00
57600;BME280;43426;43.594;24.334;2023-05-23T00:05:31;100940.09;;;15.18;100.00
57600;BME280;43426;43.594;24.334;2023-05-23T00:07:56;100934.22;;;15.14;100.00
57600;BME280;43426;43.594;24.334;2023-05-23T00:10:21;100913.97;;;14.95;100.00
57600;BME280;43426;43.594;24.334;2023-05-23T00:12:47;100934.09;;;15.01;100.00
57600;BME280;43426;43.594;24.334;2023-05-23T00:15:13;100915.41;;;14.91;100.00
57600;BME280;43426;43.594;24.334;2023-05-23T00:17:38;100928.41;;;14.95;100.00
57600;BME280;43426;43.594;24.334;2023-05-23T00:20:05;100911.53;;;14.78;100.00
57600;BME280;43426;43.594;24.334;2023-05-23T00:22:34;100919.31;;;14.81;100.00
57600;BME280;43426;43.594;24.334;2023-05-23T00:24:59;100929.50;;;14.79;100.00
57600;BME280;43426;43.594;24.334;2023-05-23T00:27:27;100926.28;;;14.69;100.00
57600;BME280;43426;43.594;24.334;2023-05-23T00:29:52;100932.56;;;14.70;100.00
57600;BME280;43426;43.594;24.334;2023-05-23T00:32:18;100920.28;;;14.59;100.00
57600;BME280;43426;43.594;24.334;2023-05-23T00:34:43;100940.53;;;14.56;100.00
57600;BME280;43426;43.594;24.334;2023-05-23T00:37:09;100911.09;;;14.38;100.00
57600;BME280;43426;43.594;24.334;2023-05-23T00:39:35;100929.72;;;14.41;100.00
57600;BME280;43426;43.594;24.334;2023-05-23T00:42:03;100928.78;;;14.34;100.00
57600;BME280;43426;43.594;24.334;2023-05-23T00:44:32;100930.59;;;14.27;100.00
57600;BME280;43426;43.594;24.334;2023-05-23T00:46:57;100933.31;;;14.27;100.00
57600;BME280;43426;43.594;24.334;2023-05-23T00:49:25;100933.50;;;14.25;100.00
57600;BME280;43426;43.594;24.334;2023-05-23T00:51:52;100887.41;;;13.95;100.00
57600;BME280;43426;43.594;24.334;2023-05-23T00:54:19;100935.38;;;14.25;100.00
57600;BME280;43426;43.594;24.334;2023-05-23T00:56:48;100921.16;;;14.23;100.00
57600;BME280;43426;43.594;24.334;2023-05-23T00:59:13;100925.84;;;14.29;100.00
57600;BME280;43426;43.594;24.334;2023-05-23T01:01:40;100928.28;;;14.24;100.00
57600;BME280;43426;43.594;24.334;2023-05-23T01:04:05;100910.22;;;14.16;100.00
57600;BME280;43426;43.594;24.334;2023-05-23T01:06:31;100931.69;;;14.33;100.00
57600;BME280;43426;43.594;24.334;2023-05-23T01:08:58;100925.94;;;14.21;100.00
57600;BME280;43426;43.594;24.334;2023-05-23T01:11:35;100925.66;;;14.16;100.00
57600;BME280;43426;43.594;24.334;2023-05-23T01:14:10;100932.03;;;14.08;100.00
57600;BME280;43426;43.594;24.334;2023-05-23T01:19:43;100930.56;;;14.05;100.00
57600;BME280;43426;43.594;24.334;2023-05-23T01:22:21;100902.41;;;13.91;100.00
57600;BME280;43426;43.594;24.334;2023-05-23T01:25:06;100921.75;;;13.88;100.00
57600;BME280;43426;43.594;24.334;2023-05-23T01:27:54;100902.97;;;13.72;100.00
57600;BME280;43426;43.594;24.334;2023-05-23T01:30:22;100926.38;;;13.88;100.00
57600;BME280;43426;43.594;24.334;2023-05-23T01:32:50;100918.59;;;13.85;100.00
57600;BME280;43426;43.594;24.334;2023-05-23T01:35:21;100875.22;;;13.55;100.00
57600;BME280;43426;43.594;24.334;2023-05-23T01:37:48;100888.03;;;13.61;100.00
57600;BME280;43426;43.594;24.334;2023-05-23T01:40:14;100905.34;;;13.60;100.00
57600;BME280;43426;43.594;24.334;2023-05-23T01:42:39;100918.31;;;13.65;100.00
57600;BME280;43426;43.594;24.334;2023-05-23T01:45:05;100911.22;;;13.49;100.00
57600;BME280;43426;43.594;24.334;2023-05-23T01:47:31;100906.81;;;13.48;100.00
57600;BME280;43426;43.594;24.334;2023-05-23T01:49:58;100885.59;;;13.36;100.00
57600;BME280;43426;43.594;24.334;2023-05-23T01:52:24;100899.81;;;13.53;100.00
57600;BME280;43426;43.594;24.334;2023-05-23T01:54:51;100886.72;;;13.42;100.00
57600;BME280;43426;43.594;24.334;2023-05-23T01:57:18;100904.31;;;13.46;100.00
57600;BME280;43426;43.594;24.334;2023-05-23T01:59:44;100860.94;;;13.08;100.00
57600;BME280;43426;43.594;24.334;2023-05-23T02:02:10;100894.91;;;13.34;100.00
57600;BME280;43426;43.594;24.334;2023-05-23T02:04:35;100896.06;;;13.39;100.00
57600;BME280;43426;43.594;24.334;2023-05-23T02:07:00;100884.06;;;13.19;100.00
57600;BME280;43426;43.594;24.334;2023-05-23T02:09:26;100896.59;;;13.20;100.00
57600;BME280;43426;43.594;24.334;2023-05-23T02:11:51;100918.53;;;13.25;100.00
57600;BME280;43426;43.594;24.334;2023-05-23T02:14:17;100901.13;;;13.04;100.00
57600;BME280;43426;43.594;24.334;2023-05-23T02:16:42;100895.50;;;12.91;100.00
57600;BME280;43426;43.594;24.334;2023-05-23T02:19:08;100926.03;;;13.00;100.00
57600;BME280;43426;43.594;24.334;2023-05-23T02:21:34;100896.94;;;12.78;100.00
57600;BME280;43426;43.594;24.334;2023-05-23T02:23:59;100905.72;;;12.81;100.00
57600;BME280;43426;43.594;24.334;2023-05-23T02:26:25;100905.13;;;12.70;100.00
57600;BME280;43426;43.594;24.334;2023-05-23T02:28:51;100930.03;;;12.89;100.00
57600;BME280;43426;43.594;24.334;2023-05-23T02:31:17;100903.19;;;12.79;100.00
57600;BME280;43426;43.594;24.334;2023-05-23T02:33:43;100911.63;;;12.84;100.00
57600;BME280;43426;43.594;24.334;2023-05-23T02:36:08;100913.94;;;12.72;100.00
57600;BME280;43426;43.594;24.334;2023-05-23T02:38:34;100919.81;;;12.76;100.00
57600;BME280;43426;43.594;24.334;2023-05-23T02:40:59;100922.81;;;12.81;100.00
57600;BME280;43426;43.594;24.334;2023-05-23T02:43:25;100925.03;;;12.77;100.00
57600;BME280;43426;43.594;24.334;2023-05-23T02:45:50;100925.97;;;12.70;100.00
57600;BME280;43426;43.594;24.334;2023-05-23T02:48:16;100932.94;;;12.64;100.00
57600;BME280;43426;43.594;24.334;2023-05-23T02:50:41;100932.69;;;12.74;100.00
57600;BME280;43426;43.594;24.334;2023-05-23T07:25:22;100946.09;;;25.54;51.90
57600;BME280;43426;43.594;24.334;2023-05-23T07:27:47;100949.97;;;25.58;51.45
57600;BME280;43426;43.594;24.334;2023-05-23T07:30:13;100963.97;;;25.84;53.17
57600;BME280;43426;43.594;24.334;2023-05-23T07:32:40;100958.84;;;26.13;51.24
57600;BME280;43426;43.594;24.334;2023-05-23T07:35:06;100947.81;;;26.24;50.70
57600;BME280;43426;43.594;24.334;2023-05-23T07:37:31;100944.00;;;26.35;50.71
57600;BME280;43426;43.594;24.334;2023-05-23T07:39:57;100949.41;;;26.04;50.47
57600;BME280;43426;43.594;24.334;2023-05-23T07:42:22;100947.78;;;26.03;49.11
57600;BME280;43426;43.594;24.334;2023-05-23T07:44:47;100930.75;;;25.79;51.53
57600;BME280;43426;43.594;24.334;2023-05-23T07:47:13;100941.25;;;25.82;54.33
57600;BME280;43426;43.594;24.334;2023-05-23T07:49:38;100936.38;;;25.99;52.75
57600;BME280;43426;43.594;24.334;2023-05-23T07:52:03;100923.72;;;26.14;49.74
57600;BME280;43426;43.594;24.334;2023-05-23T07:54:29;100938.19;;;26.42;50.65
57600;BME280;43426;43.594;24.334;2023-05-23T07:56:55;100935.19;;;26.54;51.23
57600;BME280;43426;43.594;24.334;2023-05-23T07:59:20;100925.22;;;26.52;47.70
57600;BME280;43426;43.594;24.334;2023-05-23T08:01:46;100938.19;;;26.31;48.62
57600;BME280;43426;43.594;24.334;2023-05-23T08:04:15;100922.97;;;26.44;50.56
57600;BME280;43426;43.594;24.334;2023-05-23T08:06:40;100925.84;;;26.75;50.54
57600;BME280;43426;43.594;24.334;2023-05-23T08:09:06;100920.03;;;26.97;48.29
57600;BME280;43426;43.594;24.334;2023-05-23T08:11:31;100927.50;;;27.23;46.37
57600;BME280;43426;43.594;24.334;2023-05-23T08:13:57;100931.34;;;27.52;47.33
57600;BME280;43426;43.594;24.334;2023-05-23T08:16:24;100897.00;;;26.66;45.47
57600;BME280;43426;43.594;24.334;2023-05-23T08:18:50;100931.38;;;27.16;46.65
57600;BME280;43426;43.594;24.334;2023-05-23T08:21:15;100903.91;;;26.63;46.34
57600;BME280;43426;43.594;24.334;2023-05-23T08:23:40;100903.97;;;26.79;45.93
57600;BME280;43426;43.594;24.334;2023-05-23T08:26:06;100924.44;;;27.40;47.38
57600;BME280;43426;43.594;24.334;2023-05-23T08:28:32;100924.13;;;27.57;47.06
57600;BME280;43426;43.594;24.334;2023-05-23T08:30:58;100906.63;;;27.77;45.15
57600;BME280;43426;43.594;24.334;2023-05-23T08:33:25;100906.97;;;27.49;46.48
57600;BME280;43426;43.594;24.334;2023-05-23T08:35:50;100923.53;;;27.75;43.92
57600;BME280;43426;43.594;24.334;2023-05-23T08:38:16;100907.63;;;28.07;43.81
57600;BME280;43426;43.594;24.334;2023-05-23T08:40:48;100921.06;;;28.34;43.25
57600;BME280;43426;43.594;24.334;2023-05-23T08:43:16;100909.28;;;28.08;40.57
57600;BME280;43426;43.594;24.334;2023-05-23T08:45:41;100908.22;;;27.88;40.83
57600;BME280;43426;43.594;24.334;2023-05-23T08:48:07;100905.53;;;27.67;39.34
57600;BME280;43426;43.594;24.334;2023-05-23T08:50:39;100906.84;;;27.91;41.42
57600;BME280;43426;43.594;24.334;2023-05-23T08:53:08;100908.28;;;27.78;41.76
57600;BME280;43426;43.594;24.334;2023-05-23T08:55:36;100924.97;;;27.52;42.84
57600;BME280;43426;43.594;24.334;2023-05-23T08:58:02;100898.88;;;27.63;44.47
57600;BME280;43426;43.594;24.334;2023-05-23T09:00:28;100902.00;;;27.46;44.14
57600;BME280;43426;43.594;24.334;2023-05-23T09:02:54;100899.41;;;27.76;44.57
57600;BME280;43426;43.594;24.334;2023-05-23T09:05:20;100916.09;;;27.65;43.33
57600;BME280;43426;43.594;24.334;2023-05-23T09:07:46;100903.13;;;28.16;42.60
57600;BME280;43426;43.594;24.334;2023-05-23T09:10:12;100884.25;;;28.18;43.51
57600;BME280;43426;43.594;24.334;2023-05-23T09:12:38;100907.28;;;28.18;42.78
57600;BME280;43426;43.594;24.334;2023-05-23T09:15:05;100901.94;;;28.32;44.87
57600;BME280;43426;43.594;24.334;2023-05-23T09:17:33;100891.72;;;28.67;42.16
57600;BME280;43426;43.594;24.334;2023-05-23T09:19:59;100908.34;;;29.07;40.79
57600;BME280;43426;43.594;24.334;2023-05-23T09:22:26;100896.53;;;29.20;43.58
57600;BME280;43426;43.594;24.334;2023-05-23T09:24:54;100872.72;;;29.44;42.21
57600;BME280;43426;43.594;24.334;2023-05-23T09:27:20;100884.72;;;29.87;41.90
57600;BME280;43426;43.594;24.334;2023-05-23T09:29:45;100883.84;;;30.11;42.14
57600;BME280;43426;43.594;24.334;2023-05-23T09:32:18;100875.63;;;29.77;38.82
57600;BME280;43426;43.594;24.334;2023-05-23T09:35:01;100893.47;;;29.76;40.27
57600;BME280;43426;43.594;24.334;2023-05-23T09:37:36;100894.88;;;29.97;39.94
57600;BME280;43426;43.594;24.334;2023-05-23T09:40:19;100873.75;;;30.15;40.69
57600;BME280;43426;43.594;24.334;2023-05-23T09:42:46;100901.09;;;30.32;39.00
57600;BME280;43426;43.594;24.334;2023-05-23T09:45:15;100866.16;;;30.21;41.54
57600;BME280;43426;43.594;24.334;2023-05-23T09:47:53;100885.50;;;30.31;38.69
57600;BME280;43426;43.594;24.334;2023-05-23T09:50:19;100874.16;;;30.47;39.04
57600;BME280;43426;43.594;24.334;2023-05-23T09:52:45;100889.31;;;30.73;40.02
57600;BME280;43426;43.594;24.334;2023-05-23T09:55:11;100877.78;;;30.80;38.57
57600;BME280;43426;43.594;24.334;2023-05-23T09:57:39;100876.34;;;31.02;36.98
57600;BME280;43426;43.594;24.334;2023-05-23T10:00:08;100857.31;;;30.71;37.59
57600;BME280;43426;43.594;24.334;2023-05-23T10:03:05;100884.69;;;30.50;36.89
57600;BME280;43426;43.594;24.334;2023-05-23T10:05:46;100888.13;;;30.03;38.59
57600;BME280;43426;43.594;24.334;2023-05-23T10:13:46;100872.97;;;28.44;41.99
57600;BME280;43426;43.594;24.334;2023-05-23T10:16:20;100848.47;;;28.56;41.62
57600;BME280;43426;43.594;24.334;2023-05-23T10:18:54;100871.41;;;29.36;42.08
57600;BME280;43426;43.594;24.334;2023-05-23T10:21:34;100874.19;;;29.84;37.04
57600;BME280;43426;43.594;24.334;2023-05-23T10:24:02;100850.81;;;30.04;35.91
57600;BME280;43426;43.594;24.334;2023-05-23T10:26:28;100868.69;;;30.36;36.84
57600;BME280;43426;43.594;24.334;2023-05-23T10:28:54;100839.84;;;30.32;35.45
57600;BME280;43426;43.594;24.334;2023-05-23T10:31:22;100864.06;;;30.32;33.20
57600;BME280;43426;43.594;24.334;2023-05-23T10:34:33;100860.34;;;30.74;34.62
57600;BME280;43426;43.594;24.334;2023-05-23T10:37:02;100857.69;;;30.97;34.03
57600;BME280;43426;43.594;24.334;2023-05-23T10:45:13;100841.06;;;31.81;32.41
57600;BME280;43426;43.594;24.334;2023-05-23T10:47:38;100855.47;;;32.11;30.23
57600;BME280;43426;43.594;24.334;2023-05-23T10:50:04;100854.63;;;32.47;29.38
57600;BME280;43426;43.594;24.334;2023-05-23T10:52:38;100850.25;;;32.32;29.36
57600;BME280;43426;43.594;24.334;2023-05-23T10:55:12;100838.31;;;32.03;32.33
57600;BME280;43426;43.594;24.334;2023-05-23T10:57:37;100856.94;;;31.94;29.99
57600;BME280;43426;43.594;24.334;2023-05-23T11:00:03;100843.69;;;32.00;30.13
57600;BME280;43426;43.594;24.334;2023-05-23T11:02:29;100841.63;;;32.42;30.82
57600;BME280;43426;43.594;24.334;2023-05-23T11:05:17;100853.81;;;32.46;30.47
57600;BME280;43426;43.594;24.334;2023-05-23T11:07:43;100826.16;;;31.85;30.07
57600;BME280;43426;43.594;24.334;2023-05-23T11:10:10;100844.69;;;31.81;31.84
57600;BME280;43426;43.594;24.334;2023-05-23T11:12:40;100841.47;;;31.88;33.50
57600;BME280;43426;43.594;24.334;2023-05-23T11:15:26;100856.03;;;31.99;29.25
57600;BME280;43426;43.594;24.334;2023-05-23T11:17:55;100850.69;;;31.61;28.82
57600;BME280;43426;43.594;24.334;2023-05-23T11:20:23;100827.13;;;31.53;30.79
57600;BME280;43426;43.594;24.334;2023-05-23T11:22:58;100832.13;;;31.92;29.94
57600;BME280;43426;43.594;24.334;2023-05-23T11:25:41;100815.41;;;32.29;28.22
57600;BME280;43426;43.594;24.334;2023-05-23T11:28:08;100821.72;;;32.35;28.63
57600;BME280;43426;43.594;24.334;2023-05-23T11:30:35;100790.03;;;32.17;29.13
57600;BME280;43426;43.594;24.334;2023-05-23T11:35:34;100820.09;;;32.20;29.62
57600;BME280;43426;43.594;24.334;2023-05-23T11:38:01;100807.63;;;32.03;29.73
57600;BME280;43426;43.594;24.334;2023-05-23T11:40:32;100813.47;;;31.10;29.99
57600;BME280;43426;43.594;24.334;2023-05-23T11:42:58;100820.19;;;31.09;32.77
57600;BME280;43426;43.594;24.334;2023-05-23T11:45:25;100793.38;;;30.66;31.94
57600;BME280;43426;43.594;24.334;2023-05-23T11:47:51;100792.22;;;30.67;31.34
57600;BME280;43426;43.594;24.334;2023-05-23T11:50:17;100804.66;;;30.36;32.16
57600;BME280;43426;43.594;24.334;2023-05-23T11:52:44;100802.22;;;30.68;32.08
57600;BME280;43426;43.594;24.334;2023-05-23T11:55:15;100797.69;;;30.72;32.67
57600;BME280;43426;43.594;24.334;2023-05-23T11:57:42;100787.25;;;31.24;30.55
57600;BME280;43426;43.594;24.334;2023-05-23T12:00:08;100782.19;;;31.68;30.88
57600;BME280;43426;43.594;24.334;2023-05-23T12:02:42;100773.09;;;31.99;27.40
57600;BME280;43426;43.594;24.334;2023-05-23T12:05:12;100788.00;;;31.95;28.16
57600;BME280;43426;43.594;24.334;2023-05-23T12:07:44;100792.53;;;32.04;29.32
57600;BME280;43426;43.594;24.334;2023-05-23T12:10:11;100768.91;;;32.11;29.64
57600;BME280;43426;43.594;24.334;2023-05-23T12:12:36;100769.81;;;32.42;29.79
57600;BME280;43426;43.594;24.334;2023-05-23T12:15:02;100780.31;;;32.91;28.04
57600;BME280;43426;43.594;24.334;2023-05-23T12:17:29;100767.81;;;32.88;27.54
57600;BME280;43426;43.594;24.334;2023-05-23T12:19:55;100773.94;;;32.99;28.34
57600;BME280;43426;43.594;24.334;2023-05-23T12:22:23;100767.34;;;32.95;29.51
57600;BME280;43426;43.594;24.334;2023-05-23T12:24:52;100777.56;;;32.68;27.58
57600;BME280;43426;43.594;24.334;2023-05-23T12:27:17;100752.44;;;32.46;26.66
57600;BME280;43426;43.594;24.334;2023-05-23T12:29:49;100743.41;;;32.71;28.47
57600;BME280;43426;43.594;24.334;2023-05-23T12:32:15;100740.97;;;32.47;29.45
57600;BME280;43426;43.594;24.334;2023-05-23T12:34:41;100760.75;;;32.59;31.79
57600;BME280;43426;43.594;24.334;2023-05-23T12:37:12;100753.38;;;32.64;29.40
57600;BME280;43426;43.594;24.334;2023-05-23T12:39:38;100757.81;;;32.96;27.13
57600;BME280;43426;43.594;24.334;2023-05-23T12:42:08;100753.81;;;32.57;28.37
57600;BME280;43426;43.594;24.334;2023-05-23T12:44:34;100731.88;;;31.96;27.69
57600;BME280;43426;43.594;24.334;2023-05-23T12:47:00;100731.44;;;32.03;27.58
57600;BME280;43426;43.594;24.334;2023-05-23T12:49:25;100749.06;;;32.12;28.11
57600;BME280;43426;43.594;24.334;2023-05-23T12:51:51;100727.28;;;32.14;29.11
57600;BME280;43426;43.594;24.334;2023-05-23T12:54:16;100713.34;;;32.46;29.53
57600;BME280;43426;43.594;24.334;2023-05-23T12:56:42;100727.25;;;32.68;26.61
57600;BME280;43426;43.594;24.334;2023-05-23T12:59:07;100735.91;;;32.81;26.76
57600;BME280;43426;43.594;24.334;2023-05-23T13:01:33;100721.00;;;33.03;27.94
57600;BME280;43426;43.594;24.334;2023-05-23T13:04:02;100707.03;;;33.12;26.55
57600;BME280;43426;43.594;24.334;2023-05-23T13:06:27;100706.47;;;33.23;28.06
57600;BME280;43426;43.594;24.334;2023-05-23T13:08:53;100716.00;;;33.31;25.24
57600;BME280;43426;43.594;24.334;2023-05-23T13:11:22;100717.31;;;33.34;28.81
57600;BME280;43426;43.594;24.334;2023-05-23T13:13:49;100700.22;;;33.35;27.93
57600;BME280;43426;43.594;24.334;2023-05-23T13:16:15;100714.22;;;33.53;25.73
57600;BME280;43426;43.594;24.334;2023-05-23T13:18:41;100708.31;;;32.25;28.52
57600;BME280;43426;43.594;24.334;2023-05-23T13:21:07;100707.91;;;32.18;30.67
57600;BME280;43426;43.594;24.334;2023-05-23T13:23:33;100700.91;;;32.06;29.05
57600;BME280;43426;43.594;24.334;2023-05-23T13:26:00;100714.22;;;32.09;29.94
57600;BME280;43426;43.594;24.334;2023-05-23T13:28:26;100708.41;;;31.97;27.62
57600;BME280;43426;43.594;24.334;2023-05-23T13:30:51;100688.31;;;31.36;28.25
57600;BME280;43426;43.594;24.334;2023-05-23T13:33:17;100703.28;;;30.23;27.90
57600;BME280;43426;43.594;24.334;2023-05-23T13:35:42;100713.56;;;29.71;29.98
57600;BME280;43426;43.594;24.334;2023-05-23T13:38:08;100707.63;;;29.59;30.39
57600;BME280;43426;43.594;24.334;2023-05-23T13:40:34;100696.50;;;29.78;31.68
57600;BME280;43426;43.594;24.334;2023-05-23T13:42:59;100706.09;;;30.04;30.77
57600;BME280;43426;43.594;24.334;2023-05-23T13:45:25;100693.69;;;30.16;31.51
57600;BME280;43426;43.594;24.334;2023-05-23T13:47:50;100708.38;;;30.35;28.67
57600;BME280;43426;43.594;24.334;2023-05-23T13:50:16;100686.69;;;29.85;28.87
57600;BME280;43426;43.594;24.334;2023-05-23T13:52:41;100687.19;;;29.87;28.98
57600;BME280;43426;43.594;24.334;2023-05-23T13:55:08;100704.63;;;29.93;30.19
57600;BME280;43426;43.594;24.334;2023-05-23T13:57:33;100704.09;;;30.10;27.19
57600;BME280;43426;43.594;24.334;2023-05-23T13:59:59;100687.72;;;29.89;28.22
57600;BME280;43426;43.594;24.334;2023-05-23T14:02:24;100701.78;;;30.31;27.13
57600;BME280;43426;43.594;24.334;2023-05-23T14:04:51;100694.66;;;30.39;26.35
57600;BME280;43426;43.594;24.334;2023-05-23T14:07:17;100689.16;;;30.67;27.72
57600;BME280;43426;43.594;24.334;2023-05-23T14:09:43;100697.34;;;31.19;27.84
57600;BME280;43426;43.594;24.334;2023-05-23T14:12:08;100711.53;;;31.59;26.24
57600;BME280;43426;43.594;24.334;2023-05-23T14:14:34;100695.06;;;31.21;25.11
57600;BME280;43426;43.594;24.334;2023-05-23T14:16:59;100708.16;;;31.34;26.82
57600;BME280;43426;43.594;24.334;2023-05-23T14:19:25;100684.22;;;30.91;26.25
57600;BME280;43426;43.594;24.334;2023-05-23T14:21:50;100707.56;;;31.10;25.76
57600;BME280;43426;43.594;24.334;2023-05-23T14:24:16;100698.25;;;31.00;26.03
57600;BME280;43426;43.594;24.334;2023-05-23T14:26:41;100681.94;;;31.21;27.57
57600;BME280;43426;43.594;24.334;2023-05-23T14:29:06;100680.22;;;31.48;27.87
57600;BME280;43426;43.594;24.334;2023-05-23T14:31:32;100687.84;;;31.70;26.54
57600;BME280;43426;43.594;24.334;2023-05-23T14:33:57;100687.47;;;32.08;29.23
57600;BME280;43426;43.594;24.334;2023-05-23T14:36:24;100676.47;;;32.12;27.12
57600;BME280;43426;43.594;24.334;2023-05-23T14:38:50;100668.38;;;32.24;26.56
57600;BME280;43426;43.594;24.334;2023-05-23T14:41:15;100691.81;;;32.46;27.51
57600;BME280;43426;43.594;24.334;2023-05-23T14:43:41;100667.59;;;32.33;25.94
57600;BME280;43426;43.594;24.334;2023-05-23T14:46:06;100689.00;;;32.37;25.98
57600;BME280;43426;43.594;24.334;2023-05-23T14:48:32;100669.44;;;32.37;26.99
57600;BME280;43426;43.594;24.334;2023-05-23T14:50:58;100678.66;;;32.69;26.66
57600;BME280;43426;43.594;24.334;2023-05-23T14:53:26;100682.25;;;32.70;25.15
57600;BME280;43426;43.594;24.334;2023-05-23T14:55:52;100690.72;;;32.56;24.22
57600;BME280;43426;43.594;24.334;2023-05-23T14:58:17;100679.13;;;32.40;24.59
57600;BME280;43426;43.594;24.334;2023-05-23T15:00:43;100671.22;;;32.33;25.65
57600;BME280;43426;43.594;24.334;2023-05-23T15:03:11;100675.03;;;32.15;23.91
57600;BME280;43426;43.594;24.334;2023-05-23T15:05:36;100675.28;;;32.04;26.08
57600;BME280;43426;43.594;24.334;2023-05-23T15:08:02;100686.22;;;32.15;25.43
57600;BME280;43426;43.594;24.334;2023-05-23T15:10:28;100673.91;;;32.16;24.73
57600;BME280;43426;43.594;24.334;2023-05-23T15:12:53;100678.66;;;31.70;26.12
57600;BME280;43426;43.594;24.334;2023-05-23T15:15:19;100666.38;;;31.57;25.83
57600;BME280;43426;43.594;24.334;2023-05-23T15:17:48;100685.16;;;31.51;25.77
57600;BME280;43426;43.594;24.334;2023-05-23T15:20:14;100662.09;;;31.37;26.30
57600;BME280;43426;43.594;24.334;2023-05-23T15:22:40;100684.72;;;31.35;26.44
57600;BME280;43426;43.594;24.334;2023-05-23T15:25:07;100685.00;;;31.48;27.96
57600;BME280;43426;43.594;24.334;2023-05-23T15:27:32;100685.31;;;31.46;26.15
57600;BME280;43426;43.594;24.334;2023-05-23T15:29:58;100664.84;;;31.14;27.75
57600;BME280;43426;43.594;24.334;2023-05-23T15:32:23;100666.88;;;31.22;28.29
57600;BME280;43426;43.594;24.334;2023-05-23T15:34:48;100684.53;;;31.18;26.99
57600;BME280;43426;43.594;24.334;2023-05-23T15:37:16;100673.72;;;31.02;26.55
57600;BME280;43426;43.594;24.334;2023-05-23T15:39:42;100685.38;;;30.77;27.88
57600;BME280;43426;43.594;24.334;2023-05-23T15:42:07;100671.22;;;30.59;28.76
57600;BME280;43426;43.594;24.334;2023-05-23T15:44:33;100667.56;;;30.45;28.65
57600;BME280;43426;43.594;24.334;2023-05-23T15:46:58;100688.22;;;30.44;29.55
57600;BME280;43426;43.594;24.334;2023-05-23T15:49:23;100685.78;;;30.23;30.71
57600;BME280;43426;43.594;24.334;2023-05-23T15:51:49;100671.50;;;30.11;31.04
57600;BME280;43426;43.594;24.334;2023-05-23T15:54:14;100684.81;;;30.14;32.87
57600;BME280;43426;43.594;24.334;2023-05-23T15:56:40;100683.25;;;30.08;33.34
57600;BME280;43426;43.594;24.334;2023-05-23T15:59:05;100665.91;;;29.97;34.50
57600;BME280;43426;43.594;24.334;2023-05-23T16:01:31;100671.69;;;29.81;33.98
57600;BME280;43426;43.594;24.334;2023-05-23T16:03:58;100686.97;;;29.46;33.22
57600;BME280;43426;43.594;24.334;2023-05-23T16:06:23;100687.81;;;29.22;33.91
57600;BME280;43426;43.594;24.334;2023-05-23T16:08:49;100688.94;;;29.21;36.50
57600;BME280;43426;43.594;24.334;2023-05-23T16:11:15;100684.19;;;29.02;34.76
57600;BME280;43426;43.594;24.334;2023-05-23T16:13:41;100692.16;;;28.85;36.35
57600;BME280;43426;43.594;24.334;2023-05-23T16:16:06;100663.16;;;28.72;36.83
57600;BME280;43426;43.594;24.334;2023-05-23T16:18:32;100683.97;;;28.75;38.49
57600;BME280;43426;43.594;24.334;2023-05-23T16:20:57;100686.84;;;28.64;38.58
57600;BME280;43426;43.594;24.334;2023-05-23T16:23:23;100664.94;;;28.33;39.95
57600;BME280;43426;43.594;24.334;2023-05-23T16:25:49;100665.59;;;28.20;41.02
57600;BME280;43426;43.594;24.334;2023-05-23T16:28:16;100692.81;;;28.18;41.15
57600;BME280;43426;43.594;24.334;2023-05-23T16:30:42;100666.91;;;27.93;41.90
57600;BME280;43426;43.594;24.334;2023-05-23T16:33:07;100664.81;;;27.75;42.21
57600;BME280;43426;43.594;24.334;2023-05-23T16:35:33;100678.84;;;27.54;41.72
57600;BME280;43426;43.594;24.334;2023-05-23T16:37:58;100685.59;;;27.32;42.77
57600;BME280;43426;43.594;24.334;2023-05-23T16:40:24;100674.38;;;27.03;43.78
57600;BME280;43426;43.594;24.334;2023-05-23T16:42:49;100683.28;;;26.90;44.73
57600;BME280;43426;43.594;24.334;2023-05-23T16:45:16;100685.81;;;26.71;46.58
57600;BME280;43426;43.594;24.334;2023-05-23T16:47:42;100691.66;;;26.59;45.81
57600;BME280;43426;43.594;24.334;2023-05-23T16:50:08;100691.94;;;26.47;44.97
57600;BME280;43426;43.594;24.334;2023-05-23T16:52:34;100680.91;;;26.26;45.38
57600;BME280;43426;43.594;24.334;2023-05-23T16:54:59;100666.53;;;26.04;46.03
57600;BME280;43426;43.594;24.334;2023-05-23T16:57:25;100686.19;;;26.07;45.36
57600;BME280;43426;43.594;24.334;2023-05-23T16:59:50;100685.03;;;25.93;45.13
57600;BME280;43426;43.594;24.334;2023-05-23T17:02:16;100703.25;;;25.83;45.35
57600;BME280;43426;43.594;24.334;2023-05-23T17:04:41;100701.84;;;25.65;44.83
57600;BME280;43426;43.594;24.334;2023-05-23T17:07:07;100708.72;;;25.47;45.47
57600;BME280;43426;43.594;24.334;2023-05-23T17:09:34;100690.06;;;25.12;46.79
57600;BME280;43426;43.594;24.334;2023-05-23T17:12:00;100700.47;;;24.94;47.87
57600;BME280;43426;43.594;24.334;2023-05-23T17:14:27;100685.16;;;24.71;49.00
57600;BME280;43426;43.594;24.334;2023-05-23T17:16:52;100689.16;;;24.53;49.06
57600;BME280;43426;43.594;24.334;2023-05-23T17:19:17;100704.75;;;24.32;47.41
57600;BME280;43426;43.594;24.334;2023-05-23T17:21:43;100704.31;;;24.13;47.72
57600;BME280;43426;43.594;24.334;2023-05-23T17:24:08;100709.75;;;24.03;49.02
57600;BME280;43426;43.594;24.334;2023-05-23T17:26:34;100682.97;;;23.71;51.60